sensor_id;sensor_type;location;lat;lon;timestamp;P1;durP1;ratioP1;P2;durP2;ratioP2
29382;SDS011;16365;51.598;7.668;2022-11-23T00:00:03;6.13;;;1.42;;
29382;SDS011;16365;51.598;7.668;2022-11-23T00:02:30;4.57;;;1.20;;
29382;SDS011;16365;51.598;7.668;2022-11-23T00:04:56;5.57;;;1.45;;
29382;SDS011;16365;51.598;7.668;2022-11-23T00:07:23;7.25;;;1.67;;
29382;SDS011;16365;51.598;7.668;2022-11-23T00:09:49;7.35;;;1.50;;
29382;SDS011;16365;51.598;7.668;2022-11-23T00:12:16;6.43;;;1.55;;
29382;SDS011;16365;51.598;7.668;2022-11-23T00:14:42;7.80;;;1.73;;
29382;SDS011;16365;51.598;7.668;2022-11-23T00:17:08;5.35;;;1.60;;
29382;SDS011;16365;51.598;7.668;2022-11-23T00:19:35;6.95;;;1.50;;
29382;SDS011;16365;51.598;7.668;2022-11-23T00:22:01;4.97;;;1.40;;
29382;SDS011;16365;51.598;7.668;2022-11-23T00:24:28;5.40;;;1.25;;
29382;SDS011;16365;51.598;7.668;2022-11-23T00:26:54;6.03;;;1.38;;
29382;SDS011;16365;51.598;7.668;2022-11-23T00:29:21;9.35;;;1.50;;
29382;SDS011;16365;51.598;7.668;2022-11-23T00:31:47;5.72;;;1.42;;
29382;SDS011;16365;51.598;7.668;2022-11-23T00:34:14;8.07;;;1.48;;
29382;SDS011;16365;51.598;7.668;2022-11-23T00:36:41;6.93;;;1.60;;
29382;SDS011;16365;51.598;7.668;2022-11-23T00:39:07;2.92;;;1.30;;
29382;SDS011;16365;51.598;7.668;2022-11-23T00:41:34;4.88;;;1.38;;
29382;SDS011;16365;51.598;7.668;2022-11-23T00:44:00;8.60;;;1.25;;
29382;SDS011;16365;51.598;7.668;2022-11-23T00:46:27;11.52;;;1.83;;
29382;SDS011;16365;51.598;7.668;2022-11-23T00:48:54;6.47;;;2.05;;
29382;SDS011;16365;51.598;7.668;2022-11-23T00:51:26;8.70;;;1.73;;
29382;SDS011;16365;51.598;7.668;2022-11-23T00:53:54;8.45;;;1.77;;
29382;SDS011;16365;51.598;7.668;2022-11-23T00:56:21;9.30;;;1.50;;
29382;SDS011;16365;51.598;7.668;2022-11-23T00:58:48;10.90;;;1.55;;
29382;SDS011;16365;51.598;7.668;2022-11-23T01:01:16;12.35;;;1.33;;
29382;SDS011;16365;51.598;7.668;2022-11-23T01:03:45;7.45;;;1.63;;
29382;SDS011;16365;51.598;7.668;2022-11-23T01:08:42;5.60;;;1.73;;
29382;SDS011;16365;51.598;7.668;2022-11-23T01:11:13;8.98;;;1.40;;
29382;SDS011;16365;51.598;7.668;2022-11-23T01:13:39;4.88;;;1.45;;
29382;SDS011;16365;51.598;7.668;2022-11-23T01:16:08;6.45;;;1.67;;
29382;SDS011;16365;51.598;7.668;2022-11-23T01:18:42;7.38;;;1.85;;
29382;SDS011;16365;51.598;7.668;2022-11-23T01:21:08;9.73;;;1.73;;
29382;SDS011;16365;51.598;7.668;2022-11-23T01:23:35;8.82;;;1.75;;
29382;SDS011;16365;51.598;7.668;2022-11-23T01:26:06;8.35;;;1.45;;
29382;SDS011;16365;51.598;7.668;2022-11-23T01:28:36;11.27;;;1.50;;
29382;SDS011;16365;51.598;7.668;2022-11-23T01:31:05;5.90;;;1.60;;
29382;SDS011;16365;51.598;7.668;2022-11-23T01:33:41;7.22;;;1.65;;
29382;SDS011;16365;51.598;7.668;2022-11-23T01:36:11;4.78;;;1.38;;
29382;SDS011;16365;51.598;7.668;2022-11-23T01:38:39;6.55;;;1.20;;
29382;SDS011;16365;51.598;7.668;2022-11-23T01:41:07;8.65;;;1.50;;
29382;SDS011;16365;51.598;7.668;2022-11-23T01:43:35;7.43;;;1.63;;
29382;SDS011;16365;51.598;7.668;2022-11-23T01:46:02;5.97;;;1.20;;
29382;SDS011;16365;51.598;7.668;2022-11-23T01:48:31;5.18;;;1.25;;
29382;SDS011;16365;51.598;7.668;2022-11-23T01:51:04;3.65;;;1.40;;
29382;SDS011;16365;51.598;7.668;2022-11-23T01:53:34;3.72;;;0.93;;
29382;SDS011;16365;51.598;7.668;2022-11-23T01:56:03;6.63;;;1.58;;
29382;SDS011;16365;51.598;7.668;2022-11-23T01:58:32;7.90;;;1.63;;
29382;SDS011;16365;51.598;7.668;2022-11-23T02:01:02;5.68;;;1.50;;
29382;SDS011;16365;51.598;7.668;2022-11-23T02:03:29;7.68;;;1.65;;
29382;SDS011;16365;51.598;7.668;2022-11-23T02:05:59;4.78;;;1.20;;
29382;SDS011;16365;51.598;7.668;2022-11-23T02:08:28;4.97;;;1.20;;
29382;SDS011;16365;51.598;7.668;2022-11-23T02:10:55;4.15;;;1.55;;
29382;SDS011;16365;51.598;7.668;2022-11-23T02:13:22;5.80;;;1.20;;
29382;SDS011;16365;51.598;7.668;2022-11-23T02:15:52;6.80;;;1.15;;
29382;SDS011;16365;51.598;7.668;2022-11-23T02:18:25;4.20;;;1.30;;
29382;SDS011;16365;51.598;7.668;2022-11-23T02:20:54;6.18;;;1.63;;
29382;SDS011;16365;51.598;7.668;2022-11-23T02:26:22;2.92;;;0.90;;
29382;SDS011;16365;51.598;7.668;2022-11-23T02:28:53;5.45;;;1.50;;
29382;SDS011;16365;51.598;7.668;2022-11-23T02:31:25;2.95;;;1.15;;
29382;SDS011;16365;51.598;7.668;2022-11-23T02:33:51;6.28;;;1.58;;
29382;SDS011;16365;51.598;7.668;2022-11-23T02:39:00;6.88;;;1.23;;
29382;SDS011;16365;51.598;7.668;2022-11-23T02:41:34;4.13;;;1.17;;
29382;SDS011;16365;51.598;7.668;2022-11-23T02:44:02;4.95;;;1.23;;
29382;SDS011;16365;51.598;7.668;2022-11-23T02:46:32;6.05;;;1.00;;
29382;SDS011;16365;51.598;7.668;2022-11-23T02:49:01;4.50;;;1.20;;
29382;SDS011;16365;51.598;7.668;2022-11-23T02:51:28;8.82;;;1.63;;
29382;SDS011;16365;51.598;7.668;2022-11-23T02:53:54;7.10;;;1.50;;
29382;SDS011;16365;51.598;7.668;2022-11-23T02:56:20;5.07;;;1.10;;
29382;SDS011;16365;51.598;7.668;2022-11-23T02:58:47;4.50;;;1.90;;
29382;SDS011;16365;51.598;7.668;2022-11-23T03:01:14;8.57;;;1.42;;
29382;SDS011;16365;51.598;7.668;2022-11-23T03:03:41;12.10;;;1.42;;
29382;SDS011;16365;51.598;7.668;2022-11-23T03:06:07;5.25;;;1.38;;
29382;SDS011;16365;51.598;7.668;2022-11-23T03:08:33;8.90;;;1.75;;
29382;SDS011;16365;51.598;7.668;2022-11-23T03:11:00;9.60;;;1.50;;
29382;SDS011;16365;51.598;7.668;2022-11-23T03:13:27;8.95;;;2.03;;
29382;SDS011;16365;51.598;7.668;2022-11-23T03:15:54;3.75;;;1.13;;
29382;SDS011;16365;51.598;7.668;2022-11-23T03:18:24;4.70;;;1.42;;
29382;SDS011;16365;51.598;7.668;2022-11-23T03:20:51;7.20;;;1.20;;
29382;SDS011;16365;51.598;7.668;2022-11-23T03:23:17;4.63;;;1.52;;
29382;SDS011;16365;51.598;7.668;2022-11-23T03:25:44;9.68;;;2.08;;
29382;SDS011;16365;51.598;7.668;2022-11-23T03:28:10;6.57;;;1.50;;
29382;SDS011;16365;51.598;7.668;2022-11-23T03:30:37;6.68;;;1.52;;
29382;SDS011;16365;51.598;7.668;2022-11-23T03:33:03;8.23;;;1.40;;
29382;SDS011;16365;51.598;7.668;2022-11-23T03:35:29;12.63;;;1.60;;
29382;SDS011;16365;51.598;7.668;2022-11-23T03:37:57;4.65;;;1.40;;
29382;SDS011;16365;51.598;7.668;2022-11-23T03:40:23;6.82;;;1.30;;
29382;SDS011;16365;51.598;7.668;2022-11-23T03:42:51;5.82;;;1.35;;
29382;SDS011;16365;51.598;7.668;2022-11-23T03:45:17;4.05;;;1.30;;
29382;SDS011;16365;51.598;7.668;2022-11-23T03:47:45;9.15;;;2.13;;
29382;SDS011;16365;51.598;7.668;2022-11-23T03:50:11;5.78;;;1.55;;
29382;SDS011;16365;51.598;7.668;2022-11-23T03:52:38;4.28;;;1.30;;
29382;SDS011;16365;51.598;7.668;2022-11-23T03:55:05;8.90;;;1.52;;
29382;SDS011;16365;51.598;7.668;2022-11-23T03:57:32;6.63;;;2.00;;
29382;SDS011;16365;51.598;7.668;2022-11-23T03:59:58;4.70;;;1.20;;
29382;SDS011;16365;51.598;7.668;2022-11-23T04:02:25;6.82;;;1.45;;
29382;SDS011;16365;51.598;7.668;2022-11-23T04:04:51;7.90;;;1.60;;
29382;SDS011;16365;51.598;7.668;2022-11-23T04:07:17;6.95;;;1.95;;
29382;SDS011;16365;51.598;7.668;2022-11-23T04:09:44;4.43;;;1.40;;
29382;SDS011;16365;51.598;7.668;2022-11-23T04:12:10;6.13;;;2.13;;
29382;SDS011;16365;51.598;7.668;2022-11-23T04:14:37;5.55;;;1.30;;
29382;SDS011;16365;51.598;7.668;2022-11-23T04:17:05;6.63;;;1.45;;
29382;SDS011;16365;51.598;7.668;2022-11-23T04:19:32;5.85;;;1.35;;
29382;SDS011;16365;51.598;7.668;2022-11-23T04:21:58;5.68;;;1.70;;
29382;SDS011;16365;51.598;7.668;2022-11-23T04:24:25;8.63;;;1.10;;
29382;SDS011;16365;51.598;7.668;2022-11-23T04:26:51;11.23;;;1.55;;
29382;SDS011;16365;51.598;7.668;2022-11-23T04:29:18;7.60;;;1.83;;
29382;SDS011;16365;51.598;7.668;2022-11-23T04:31:44;6.72;;;1.40;;
29382;SDS011;16365;51.598;7.668;2022-11-23T04:34:11;3.85;;;0.93;;
29382;SDS011;16365;51.598;7.668;2022-11-23T04:36:38;5.28;;;1.33;;
29382;SDS011;16365;51.598;7.668;2022-11-23T04:39:04;4.32;;;1.20;;
29382;SDS011;16365;51.598;7.668;2022-11-23T04:41:31;5.13;;;1.08;;
29382;SDS011;16365;51.598;7.668;2022-11-23T04:43:58;7.85;;;1.27;;
29382;SDS011;16365;51.598;7.668;2022-11-23T04:46:24;7.63;;;1.40;;
29382;SDS011;16365;51.598;7.668;2022-11-23T04:48:51;4.70;;;1.08;;
29382;SDS011;16365;51.598;7.668;2022-11-23T04:51:17;5.13;;;1.40;;
29382;SDS011;16365;51.598;7.668;2022-11-23T04:53:44;8.38;;;1.50;;
29382;SDS011;16365;51.598;7.668;2022-11-23T04:56:10;3.50;;;1.08;;
29382;SDS011;16365;51.598;7.668;2022-11-23T04:58:37;4.10;;;1.40;;
29382;SDS011;16365;51.598;7.668;2022-11-23T05:01:04;5.85;;;1.35;;
29382;SDS011;16365;51.598;7.668;2022-11-23T05:03:31;4.65;;;1.27;;
29382;SDS011;16365;51.598;7.668;2022-11-23T05:06:03;4.25;;;1.17;;
29382;SDS011;16365;51.598;7.668;2022-11-23T05:08:35;7.38;;;1.35;;
29382;SDS011;16365;51.598;7.668;2022-11-23T05:11:02;2.90;;;1.17;;
29382;SDS011;16365;51.598;7.668;2022-11-23T05:13:28;3.58;;;1.20;;
29382;SDS011;16365;51.598;7.668;2022-11-23T05:15:57;2.88;;;1.10;;
29382;SDS011;16365;51.598;7.668;2022-11-23T05:18:24;2.22;;;1.00;;
29382;SDS011;16365;51.598;7.668;2022-11-23T05:20:50;2.47;;;0.93;;
29382;SDS011;16365;51.598;7.668;2022-11-23T05:23:16;4.07;;;1.40;;
29382;SDS011;16365;51.598;7.668;2022-11-23T05:25:46;6.63;;;1.63;;
29382;SDS011;16365;51.598;7.668;2022-11-23T05:28:16;3.47;;;1.15;;
29382;SDS011;16365;51.598;7.668;2022-11-23T05:31:04;3.75;;;1.55;;
29382;SDS011;16365;51.598;7.668;2022-11-23T05:33:31;4.55;;;1.30;;
29382;SDS011;16365;51.598;7.668;2022-11-23T05:35:57;6.13;;;1.65;;
29382;SDS011;16365;51.598;7.668;2022-11-23T05:38:23;6.68;;;1.63;;
29382;SDS011;16365;51.598;7.668;2022-11-23T05:40:50;5.20;;;1.58;;
29382;SDS011;16365;51.598;7.668;2022-11-23T05:43:16;8.43;;;1.73;;
29382;SDS011;16365;51.598;7.668;2022-11-23T05:45:43;7.68;;;1.63;;
29382;SDS011;16365;51.598;7.668;2022-11-23T05:48:10;6.07;;;1.60;;
29382;SDS011;16365;51.598;7.668;2022-11-23T05:50:37;5.03;;;1.35;;
29382;SDS011;16365;51.598;7.668;2022-11-23T05:53:03;3.47;;;1.33;;
29382;SDS011;16365;51.598;7.668;2022-11-23T05:55:30;4.40;;;1.20;;
29382;SDS011;16365;51.598;7.668;2022-11-23T05:57:56;9.00;;;1.80;;
29382;SDS011;16365;51.598;7.668;2022-11-23T06:00:23;4.75;;;1.67;;
29382;SDS011;16365;51.598;7.668;2022-11-23T06:02:49;8.43;;;1.48;;
29382;SDS011;16365;51.598;7.668;2022-11-23T06:05:17;5.40;;;1.42;;
29382;SDS011;16365;51.598;7.668;2022-11-23T06:07:45;7.72;;;1.58;;
29382;SDS011;16365;51.598;7.668;2022-11-23T06:10:12;5.75;;;1.48;;
29382;SDS011;16365;51.598;7.668;2022-11-23T06:12:38;7.20;;;1.67;;
29382;SDS011;16365;51.598;7.668;2022-11-23T06:15:05;9.05;;;1.50;;
29382;SDS011;16365;51.598;7.668;2022-11-23T06:17:31;5.30;;;1.80;;
29382;SDS011;16365;51.598;7.668;2022-11-23T06:19:59;6.90;;;1.92;;
29382;SDS011;16365;51.598;7.668;2022-11-23T06:22:26;7.10;;;1.75;;
29382;SDS011;16365;51.598;7.668;2022-11-23T06:24:52;7.63;;;2.15;;
29382;SDS011;16365;51.598;7.668;2022-11-23T06:27:18;7.18;;;1.20;;
29382;SDS011;16365;51.598;7.668;2022-11-23T06:29:45;6.25;;;1.27;;
29382;SDS011;16365;51.598;7.668;2022-11-23T06:32:13;8.63;;;1.85;;
29382;SDS011;16365;51.598;7.668;2022-11-23T06:34:41;5.78;;;2.20;;
29382;SDS011;16365;51.598;7.668;2022-11-23T06:37:07;8.25;;;2.13;;
29382;SDS011;16365;51.598;7.668;2022-11-23T06:39:34;6.97;;;1.52;;
29382;SDS011;16365;51.598;7.668;2022-11-23T06:42:00;6.93;;;1.60;;
29382;SDS011;16365;51.598;7.668;2022-11-23T06:44:47;9.57;;;1.75;;
29382;SDS011;16365;51.598;7.668;2022-11-23T06:47:13;5.13;;;1.75;;
29382;SDS011;16365;51.598;7.668;2022-11-23T06:49:44;7.28;;;1.38;;
29382;SDS011;16365;51.598;7.668;2022-11-23T06:52:10;7.10;;;1.75;;
29382;SDS011;16365;51.598;7.668;2022-11-23T06:54:37;7.18;;;1.75;;
29382;SDS011;16365;51.598;7.668;2022-11-23T06:57:06;7.10;;;1.73;;
29382;SDS011;16365;51.598;7.668;2022-11-23T06:59:33;6.65;;;1.60;;
29382;SDS011;16365;51.598;7.668;2022-11-23T07:02:02;7.90;;;1.98;;
29382;SDS011;16365;51.598;7.668;2022-11-23T07:04:29;4.75;;;1.75;;
29382;SDS011;16365;51.598;7.668;2022-11-23T07:06:55;6.07;;;1.60;;
29382;SDS011;16365;51.598;7.668;2022-11-23T07:09:22;9.38;;;1.60;;
29382;SDS011;16365;51.598;7.668;2022-11-23T07:11:49;6.15;;;1.83;;
29382;SDS011;16365;51.598;7.668;2022-11-23T07:14:16;5.30;;;1.75;;
29382;SDS011;16365;51.598;7.668;2022-11-23T07:16:42;2.65;;;1.00;;
29382;SDS011;16365;51.598;7.668;2022-11-23T07:19:09;4.32;;;1.17;;
29382;SDS011;16365;51.598;7.668;2022-11-23T07:21:35;5.07;;;1.45;;
29382;SDS011;16365;51.598;7.668;2022-11-23T07:24:03;4.35;;;1.67;;
29382;SDS011;16365;51.598;7.668;2022-11-23T07:26:29;7.28;;;1.52;;
29382;SDS011;16365;51.598;7.668;2022-11-23T07:28:56;5.00;;;1.73;;
29382;SDS011;16365;51.598;7.668;2022-11-23T07:31:22;5.22;;;1.75;;
29382;SDS011;16365;51.598;7.668;2022-11-23T07:33:49;6.63;;;1.58;;
29382;SDS011;16365;51.598;7.668;2022-11-23T07:36:15;5.75;;;1.00;;
29382;SDS011;16365;51.598;7.668;2022-11-23T07:38:42;3.53;;;1.08;;
29382;SDS011;16365;51.598;7.668;2022-11-23T07:41:08;2.83;;;1.27;;
29382;SDS011;16365;51.598;7.668;2022-11-23T07:43:35;4.82;;;1.65;;
29382;SDS011;16365;51.598;7.668;2022-11-23T07:46:01;3.65;;;1.30;;
29382;SDS011;16365;51.598;7.668;2022-11-23T07:48:28;7.28;;;1.25;;
29382;SDS011;16365;51.598;7.668;2022-11-23T07:51:01;3.95;;;1.00;;
29382;SDS011;16365;51.598;7.668;2022-11-23T07:53:28;2.92;;;1.08;;
29382;SDS011;16365;51.598;7.668;2022-11-23T07:55:55;6.95;;;1.17;;
29382;SDS011;16365;51.598;7.668;2022-11-23T07:58:24;6.68;;;1.52;;
29382;SDS011;16365;51.598;7.668;2022-11-23T08:00:50;11.55;;;1.58;;
29382;SDS011;16365;51.598;7.668;2022-11-23T08:03:17;3.53;;;1.00;;
29382;SDS011;16365;51.598;7.668;2022-11-23T08:05:53;9.13;;;1.40;;
29382;SDS011;16365;51.598;7.668;2022-11-23T08:08:20;5.78;;;1.10;;
29382;SDS011;16365;51.598;7.668;2022-11-23T08:10:47;5.90;;;1.60;;
29382;SDS011;16365;51.598;7.668;2022-11-23T08:13:19;6.68;;;1.55;;
29382;SDS011;16365;51.598;7.668;2022-11-23T08:15:46;6.82;;;1.63;;
29382;SDS011;16365;51.598;7.668;2022-11-23T08:18:19;4.78;;;1.08;;
29382;SDS011;16365;51.598;7.668;2022-11-23T08:20:46;5.30;;;1.45;;
29382;SDS011;16365;51.598;7.668;2022-11-23T08:23:13;8.95;;;1.40;;
29382;SDS011;16365;51.598;7.668;2022-11-23T08:25:39;4.57;;;1.33;;
29382;SDS011;16365;51.598;7.668;2022-11-23T08:28:06;7.85;;;2.17;;
29382;SDS011;16365;51.598;7.668;2022-11-23T08:30:33;6.68;;;1.50;;
29382;SDS011;16365;51.598;7.668;2022-11-23T08:33:06;5.75;;;1.38;;
29382;SDS011;16365;51.598;7.668;2022-11-23T08:35:34;6.80;;;1.60;;
29382;SDS011;16365;51.598;7.668;2022-11-23T08:38:02;11.93;;;2.78;;
29382;SDS011;16365;51.598;7.668;2022-11-23T08:40:29;8.75;;;1.88;;
29382;SDS011;16365;51.598;7.668;2022-11-23T08:42:56;10.60;;;1.83;;
29382;SDS011;16365;51.598;7.668;2022-11-23T08:45:23;9.07;;;1.48;;
29382;SDS011;16365;51.598;7.668;2022-11-23T08:47:49;7.30;;;1.48;;
29382;SDS011;16365;51.598;7.668;2022-11-23T08:50:16;6.35;;;1.27;;
29382;SDS011;16365;51.598;7.668;2022-11-23T08:52:43;10.50;;;1.98;;
29382;SDS011;16365;51.598;7.668;2022-11-23T08:55:09;7.55;;;1.80;;
29382;SDS011;16365;51.598;7.668;2022-11-23T08:57:36;8.75;;;1.48;;
29382;SDS011;16365;51.598;7.668;2022-11-23T09:00:05;10.50;;;1.92;;
29382;SDS011;16365;51.598;7.668;2022-11-23T09:02:33;6.32;;;1.52;;
29382;SDS011;16365;51.598;7.668;2022-11-23T09:04:59;7.25;;;1.98;;
29382;SDS011;16365;51.598;7.668;2022-11-23T09:07:25;10.48;;;1.50;;
29382;SDS011;16365;51.598;7.668;2022-11-23T09:09:52;8.40;;;1.50;;
29382;SDS011;16365;51.598;7.668;2022-11-23T09:12:19;7.15;;;1.65;;
29382;SDS011;16365;51.598;7.668;2022-11-23T09:14:45;9.30;;;1.48;;
29382;SDS011;16365;51.598;7.668;2022-11-23T09:17:12;9.20;;;1.48;;
29382;SDS011;16365;51.598;7.668;2022-11-23T09:19:39;4.38;;;1.38;;
29382;SDS011;16365;51.598;7.668;2022-11-23T09:22:05;9.10;;;1.63;;
29382;SDS011;16365;51.598;7.668;2022-11-23T09:24:32;9.95;;;1.85;;
29382;SDS011;16365;51.598;7.668;2022-11-23T09:26:59;10.27;;;1.83;;
29382;SDS011;16365;51.598;7.668;2022-11-23T09:29:25;7.90;;;1.55;;
29382;SDS011;16365;51.598;7.668;2022-11-23T09:31:52;12.38;;;1.60;;
29382;SDS011;16365;51.598;7.668;2022-11-23T09:34:19;11.27;;;1.50;;
29382;SDS011;16365;51.598;7.668;2022-11-23T09:36:46;9.07;;;1.33;;
29382;SDS011;16365;51.598;7.668;2022-11-23T09:39:12;4.97;;;1.30;;
29382;SDS011;16365;51.598;7.668;2022-11-23T09:41:46;10.98;;;1.58;;
29382;SDS011;16365;51.598;7.668;2022-11-23T09:52:53;5.32;;;1.60;;
29382;SDS011;16365;51.598;7.668;2022-11-23T09:55:30;11.93;;;2.42;;
29382;SDS011;16365;51.598;7.668;2022-11-23T09:58:03;9.10;;;1.80;;
29382;SDS011;16365;51.598;7.668;2022-11-23T10:01:06;12.48;;;1.65;;
29382;SDS011;16365;51.598;7.668;2022-11-23T10:03:34;13.00;;;2.17;;
29382;SDS011;16365;51.598;7.668;2022-11-23T10:08:51;9.18;;;2.38;;
29382;SDS011;16365;51.598;7.668;2022-11-23T10:17:12;9.48;;;1.92;;
29382;SDS011;16365;51.598;7.668;2022-11-23T10:20:02;12.18;;;2.53;;
29382;SDS011;16365;51.598;7.668;2022-11-23T10:22:58;11.68;;;2.38;;
29382;SDS011;16365;51.598;7.668;2022-11-23T10:25:25;10.02;;;2.15;;
29382;SDS011;16365;51.598;7.668;2022-11-23T10:28:08;8.70;;;1.58;;
29382;SDS011;16365;51.598;7.668;2022-11-23T10:30:39;8.40;;;1.83;;
29382;SDS011;16365;51.598;7.668;2022-11-23T10:33:16;11.90;;;2.22;;
29382;SDS011;16365;51.598;7.668;2022-11-23T10:35:49;9.80;;;2.05;;
29382;SDS011;16365;51.598;7.668;2022-11-23T10:38:17;13.45;;;2.28;;
29382;SDS011;16365;51.598;7.668;2022-11-23T10:40:59;8.85;;;1.90;;
29382;SDS011;16365;51.598;7.668;2022-11-23T10:43:30;14.13;;;2.25;;
29382;SDS011;16365;51.598;7.668;2022-11-23T10:48:49;16.27;;;2.22;;
29382;SDS011;16365;51.598;7.668;2022-11-23T10:53:56;13.50;;;3.00;;
29382;SDS011;16365;51.598;7.668;2022-11-23T10:56:30;9.52;;;2.13;;
29382;SDS011;16365;51.598;7.668;2022-11-23T10:58:58;13.30;;;2.80;;
29382;SDS011;16365;51.598;7.668;2022-11-23T11:01:25;14.27;;;2.65;;
29382;SDS011;16365;51.598;7.668;2022-11-23T11:03:55;10.77;;;2.35;;
29382;SDS011;16365;51.598;7.668;2022-11-23T11:06:28;14.27;;;2.50;;
29382;SDS011;16365;51.598;7.668;2022-11-23T11:08:59;12.18;;;2.33;;
29382;SDS011;16365;51.598;7.668;2022-11-23T11:11:36;15.60;;;2.92;;
29382;SDS011;16365;51.598;7.668;2022-11-23T11:14:18;11.95;;;2.45;;
29382;SDS011;16365;51.598;7.668;2022-11-23T11:16:55;10.70;;;1.90;;
29382;SDS011;16365;51.598;7.668;2022-11-23T11:19:26;10.40;;;2.47;;
29382;SDS011;16365;51.598;7.668;2022-11-23T11:21:56;18.13;;;2.08;;
29382;SDS011;16365;51.598;7.668;2022-11-23T11:24:58;11.07;;;1.80;;
29382;SDS011;16365;51.598;7.668;2022-11-23T11:27:19;11.95;;;2.30;;
29382;SDS011;16365;51.598;7.668;2022-11-23T11:29:47;12.60;;;2.53;;
29382;SDS011;16365;51.598;7.668;2022-11-23T11:32:19;8.98;;;2.10;;
29382;SDS011;16365;51.598;7.668;2022-11-23T11:37:45;8.18;;;2.10;;
29382;SDS011;16365;51.598;7.668;2022-11-23T11:43:07;10.23;;;1.90;;
29382;SDS011;16365;51.598;7.668;2022-11-23T11:46:16;12.95;;;3.28;;
29382;SDS011;16365;51.598;7.668;2022-11-23T11:48:55;11.30;;;2.33;;
29382;SDS011;16365;51.598;7.668;2022-11-23T11:51:31;12.23;;;2.10;;
29382;SDS011;16365;51.598;7.668;2022-11-23T11:54:19;8.98;;;1.80;;
29382;SDS011;16365;51.598;7.668;2022-11-23T11:56:57;11.80;;;2.50;;
29382;SDS011;16365;51.598;7.668;2022-11-23T11:59:31;15.05;;;2.15;;
29382;SDS011;16365;51.598;7.668;2022-11-23T12:02:23;10.07;;;3.13;;
29382;SDS011;16365;51.598;7.668;2022-11-23T12:04:55;11.38;;;2.40;;
29382;SDS011;16365;51.598;7.668;2022-11-23T12:12:39;9.65;;;1.98;;
29382;SDS011;16365;51.598;7.668;2022-11-23T12:15:08;9.68;;;2.28;;
29382;SDS011;16365;51.598;7.668;2022-11-23T12:18:12;9.27;;;2.53;;
29382;SDS011;16365;51.598;7.668;2022-11-23T12:20:53;15.20;;;2.20;;
29382;SDS011;16365;51.598;7.668;2022-11-23T12:32:45;14.70;;;2.58;;
29382;SDS011;16365;51.598;7.668;2022-11-23T12:38:24;8.95;;;2.35;;
29382;SDS011;16365;51.598;7.668;2022-11-23T12:43:51;11.05;;;2.38;;
29382;SDS011;16365;51.598;7.668;2022-11-23T12:47:20;12.07;;;2.92;;
29382;SDS011;16365;51.598;7.668;2022-11-23T13:00:35;8.52;;;3.00;;
29382;SDS011;16365;51.598;7.668;2022-11-23T13:11:20;9.07;;;2.42;;
29382;SDS011;16365;51.598;7.668;2022-11-23T13:20:12;11.85;;;2.03;;
29382;SDS011;16365;51.598;7.668;2022-11-23T13:22:45;11.35;;;2.40;;
29382;SDS011;16365;51.598;7.668;2022-11-23T13:25:17;7.97;;;2.22;;
29382;SDS011;16365;51.598;7.668;2022-11-23T13:27:42;10.00;;;3.13;;
29382;SDS011;16365;51.598;7.668;2022-11-23T13:30:35;9.20;;;2.05;;
29382;SDS011;16365;51.598;7.668;2022-11-23T13:33:24;11.18;;;2.08;;
29382;SDS011;16365;51.598;7.668;2022-11-23T13:35:58;15.57;;;2.20;;
29382;SDS011;16365;51.598;7.668;2022-11-23T13:44:10;14.20;;;2.72;;
29382;SDS011;16365;51.598;7.668;2022-11-23T13:46:42;8.45;;;1.95;;
29382;SDS011;16365;51.598;7.668;2022-11-23T13:52:05;9.32;;;2.47;;
29382;SDS011;16365;51.598;7.668;2022-11-23T13:57:20;11.18;;;2.10;;
29382;SDS011;16365;51.598;7.668;2022-11-23T13:59:47;11.50;;;3.00;;
29382;SDS011;16365;51.598;7.668;2022-11-23T14:07:58;11.82;;;2.22;;
29382;SDS011;16365;51.598;7.668;2022-11-23T14:10:28;14.60;;;2.42;;
29382;SDS011;16365;51.598;7.668;2022-11-23T14:12:59;9.25;;;2.35;;
29382;SDS011;16365;51.598;7.668;2022-11-23T14:15:34;5.43;;;2.30;;
29382;SDS011;16365;51.598;7.668;2022-11-23T14:23:52;11.00;;;1.90;;
29382;SDS011;16365;51.598;7.668;2022-11-23T14:26:50;7.38;;;1.98;;
29382;SDS011;16365;51.598;7.668;2022-11-23T14:30:05;11.77;;;1.85;;
29382;SDS011;16365;51.598;7.668;2022-11-23T14:32:55;9.80;;;2.03;;
29382;SDS011;16365;51.598;7.668;2022-11-23T14:38:27;10.75;;;2.03;;
29382;SDS011;16365;51.598;7.668;2022-11-23T14:41:09;8.25;;;1.88;;
29382;SDS011;16365;51.598;7.668;2022-11-23T14:43:41;12.65;;;2.05;;
29382;SDS011;16365;51.598;7.668;2022-11-23T14:46:13;8.38;;;1.98;;
29382;SDS011;16365;51.598;7.668;2022-11-23T14:48:41;5.82;;;1.77;;
29382;SDS011;16365;51.598;7.668;2022-11-23T14:51:12;8.82;;;1.83;;
29382;SDS011;16365;51.598;7.668;2022-11-23T14:53:46;9.52;;;1.90;;
29382;SDS011;16365;51.598;7.668;2022-11-23T14:56:20;7.03;;;1.85;;
29382;SDS011;16365;51.598;7.668;2022-11-23T14:58:49;6.90;;;2.00;;
29382;SDS011;16365;51.598;7.668;2022-11-23T15:01:20;8.25;;;1.75;;
29382;SDS011;16365;51.598;7.668;2022-11-23T15:03:57;6.90;;;1.33;;
29382;SDS011;16365;51.598;7.668;2022-11-23T15:06:29;9.32;;;3.25;;
29382;SDS011;16365;51.598;7.668;2022-11-23T15:09:15;10.57;;;4.10;;
29382;SDS011;16365;51.598;7.668;2022-11-23T15:11:49;9.35;;;2.88;;
29382;SDS011;16365;51.598;7.668;2022-11-23T15:14:20;12.55;;;3.20;;
29382;SDS011;16365;51.598;7.668;2022-11-23T15:16:51;11.75;;;3.97;;
29382;SDS011;16365;51.598;7.668;2022-11-23T15:19:26;8.52;;;3.13;;
29382;SDS011;16365;51.598;7.668;2022-11-23T15:21:55;12.45;;;3.30;;
29382;SDS011;16365;51.598;7.668;2022-11-23T15:24:23;12.57;;;3.20;;
29382;SDS011;16365;51.598;7.668;2022-11-23T15:26:52;10.77;;;3.35;;
29382;SDS011;16365;51.598;7.668;2022-11-23T15:29:37;12.18;;;3.85;;
29382;SDS011;16365;51.598;7.668;2022-11-23T15:32:26;13.02;;;4.20;;
29382;SDS011;16365;51.598;7.668;2022-11-23T15:35:04;12.82;;;4.32;;
29382;SDS011;16365;51.598;7.668;2022-11-23T15:37:46;14.75;;;4.72;;
29382;SDS011;16365;51.598;7.668;2022-11-23T15:40:15;9.48;;;3.42;;
29382;SDS011;16365;51.598;7.668;2022-11-23T15:42:44;8.63;;;4.07;;
29382;SDS011;16365;51.598;7.668;2022-11-23T15:48:00;8.82;;;2.65;;
29382;SDS011;16365;51.598;7.668;2022-11-23T15:50:29;12.05;;;2.95;;
29382;SDS011;16365;51.598;7.668;2022-11-23T15:52:59;16.40;;;3.50;;
29382;SDS011;16365;51.598;7.668;2022-11-23T15:55:27;9.68;;;3.65;;
29382;SDS011;16365;51.598;7.668;2022-11-23T15:57:55;7.68;;;3.00;;
29382;SDS011;16365;51.598;7.668;2022-11-23T16:00:24;9.68;;;2.40;;
29382;SDS011;16365;51.598;7.668;2022-11-23T16:02:51;7.03;;;2.67;;
29382;SDS011;16365;51.598;7.668;2022-11-23T16:05:21;7.22;;;2.08;;
29382;SDS011;16365;51.598;7.668;2022-11-23T16:07:55;9.05;;;2.08;;
29382;SDS011;16365;51.598;7.668;2022-11-23T16:10:33;6.75;;;1.83;;
29382;SDS011;16365;51.598;7.668;2022-11-23T16:13:02;8.90;;;1.98;;
29382;SDS011;16365;51.598;7.668;2022-11-23T16:18:03;11.32;;;2.13;;
29382;SDS011;16365;51.598;7.668;2022-11-23T16:20:46;21.98;;;8.85;;
29382;SDS011;16365;51.598;7.668;2022-11-23T16:23:17;10.80;;;3.60;;
29382;SDS011;16365;51.598;7.668;2022-11-23T16:25:51;11.73;;;3.58;;
29382;SDS011;16365;51.598;7.668;2022-11-23T16:28:27;10.23;;;4.20;;
29382;SDS011;16365;51.598;7.668;2022-11-23T16:30:56;7.85;;;2.72;;
29382;SDS011;16365;51.598;7.668;2022-11-23T16:33:23;9.47;;;3.60;;
29382;SDS011;16365;51.598;7.668;2022-11-23T16:35:52;11.13;;;4.57;;
29382;SDS011;16365;51.598;7.668;2022-11-23T16:38:19;9.32;;;3.33;;
29382;SDS011;16365;51.598;7.668;2022-11-23T16:40:46;7.07;;;2.30;;
29382;SDS011;16365;51.598;7.668;2022-11-23T16:43:15;7.22;;;2.05;;
29382;SDS011;16365;51.598;7.668;2022-11-23T16:45:44;6.20;;;1.90;;
29382;SDS011;16365;51.598;7.668;2022-11-23T16:51:02;10.95;;;2.28;;
29382;SDS011;16365;51.598;7.668;2022-11-23T16:53:29;9.18;;;2.10;;
29382;SDS011;16365;51.598;7.668;2022-11-23T16:56:17;10.10;;;2.50;;
29382;SDS011;16365;51.598;7.668;2022-11-23T16:58:48;12.18;;;4.28;;